Pawtucket, Rhode Island
Current Conditions -  °F | °C
As of 1:55 PM on Thursday 23 Oct 2014 (Local Time) from KSFZ Reporting Station
Overcast Overcast  
Wind Chill: 54°   Ceiling: 600
Heat Index: 54°   Visibility: 10mi
Dew Point: 45°   Wind: 14mph
Humidity: 72%   Direction: 10°N
Pressure: 29.58"   Gusts: 25mph
Location:  41.88°N, 71.38°W
Report Text: KSFZ 231755Z 01012G22KT 10SM OVC006 12/07 A2958 RMK AO1 60001 10120 20090 57014
Loading
Personal Weather Stations






























Interactive Weather Map
Tropical Storm Tracking
New forecast layout! Learn more

10-Day Weather Forecast

Advertisements
Track Severe Weather on mobile